Time;durP1;ratioP1;P1;durP2;ratioP2;P2;SDS_P1;SDS_P2;PMS_P1;PMS_P2;Temp;Humidity;BMP_temperature;BMP_pressure;BME280_temperature;BME280_humidity;BME280_pressure;Samples;Min_cycle;Max_cycle;Signal;HPM_P1;HPM_P2
2023/12/29 00:00:24;;;;;;;2.00;1.17;;;21.10;80.50;;;;;;4999731;28;20986;-59
2023/12/29 00:02:53;;;;;;;1.10;0.80;;;21.10;79.80;;;;;;5009044;28;21103;-60
2023/12/29 00:05:20;;;;;;;1.35;0.90;;;21.00;79.60;;;;;;5004767;28;20470;-59
2023/12/29 00:07:47;;;;;;;1.55;1.00;;;21.00;79.70;;;;;;5003867;28;21226;-58
2023/12/29 00:10:14;;;;;;;1.20;0.90;;;21.00;79.60;;;;;;5005718;28;20191;-59
2023/12/29 00:12:44;;;;;;;1.42;1.00;;;21.00;79.70;;;;;;5002306;28;20439;-58
2023/12/29 00:15:11;;;;;;;1.35;0.73;;;21.00;79.60;;;;;;5005328;28;20187;-59
2023/12/29 00:17:40;;;;;;;1.10;0.88;;;21.00;79.80;;;;;;5005244;28;20195;-56
2023/12/29 00:20:08;;;;;;;1.27;0.90;;;21.00;79.80;;;;;;5002066;28;20195;-59
2023/12/29 00:22:35;;;;;;;1.90;1.20;;;21.00;79.80;;;;;;5004661;28;20290;-59
2023/12/29 00:25:02;;;;;;;2.92;1.40;;;20.90;79.60;;;;;;5000535;28;20210;-59
2023/12/29 00:27:29;;;;;;;1.85;0.70;;;20.90;79.60;;;;;;5006054;28;20229;-58
2023/12/29 00:29:56;;;;;;;1.85;1.20;;;20.90;79.80;;;;;;4996952;28;20196;-60
2023/12/29 00:32:22;;;;;;;1.52;1.20;;;20.90;79.90;;;;;;5004685;28;20753;-59
2023/12/29 00:34:52;;;;;;;1.20;1.10;;;20.90;79.90;;;;;;5005029;28;20200;-59
2023/12/29 00:37:20;;;;;;;2.03;1.10;;;20.90;79.80;;;;;;5002688;28;20643;-57
2023/12/29 00:39:47;;;;;;;1.40;1.10;;;20.90;80.00;;;;;;5005501;28;20678;-59
2023/12/29 00:42:13;;;;;;;1.10;0.80;;;20.80;79.90;;;;;;5003870;28;20671;-57
2023/12/29 00:44:40;;;;;;;1.42;0.90;;;20.80;79.90;;;;;;5003613;28;20199;-57
2023/12/29 00:47:08;;;;;;;1.92;1.20;;;20.80;79.90;;;;;;5005624;28;20234;-59
2023/12/29 00:49:38;;;;;;;1.65;1.00;;;20.80;79.80;;;;;;5005564;28;20196;-59
2023/12/29 00:52:07;;;;;;;1.70;0.93;;;20.80;80.00;;;;;;5008287;28;20195;-59
2023/12/29 00:54:33;;;;;;;1.10;0.88;;;20.80;80.00;;;;;;5005028;28;20207;-59
2023/12/29 00:57:00;;;;;;;2.00;1.10;;;20.70;79.90;;;;;;5007234;28;20795;-58
2023/12/29 00:59:27;;;;;;;2.80;1.00;;;20.70;79.90;;;;;;5002008;28;20197;-58
2023/12/29 01:01:53;;;;;;;1.10;0.90;;;20.70;79.90;;;;;;5003467;28;20630;-58
2023/12/29 01:04:21;;;;;;;1.88;1.10;;;20.70;80.00;;;;;;5006329;28;20614;-58
2023/12/29 01:06:50;;;;;;;1.35;0.90;;;20.70;80.00;;;;;;5006422;28;20563;-60
2023/12/29 01:09:18;;;;;;;2.20;0.90;;;20.70;80.10;;;;;;5005806;28;20203;-59
2023/12/29 01:11:44;;;;;;;1.30;0.95;;;20.70;80.20;;;;;;4995981;28;20206;-58
2023/12/29 01:14:11;;;;;;;1.13;0.90;;;20.70;80.10;;;;;;5000494;28;20207;-58
2023/12/29 01:16:38;;;;;;;2.72;1.10;;;20.60;80.10;;;;;;5003371;28;20207;-60
2023/12/29 01:19:05;;;;;;;1.63;0.85;;;20.60;80.10;;;;;;5005894;28;20383;-58
2023/12/29 01:21:33;;;;;;;1.20;0.95;;;20.60;80.10;;;;;;5002850;28;20218;-59
2023/12/29 01:24:03;;;;;;;1.33;1.20;;;20.60;80.20;;;;;;5005102;28;20224;-58
2023/12/29 01:26:31;;;;;;;1.30;0.80;;;20.60;80.10;;;;;;4999687;28;20235;-60
2023/12/29 01:28:57;;;;;;;1.77;1.17;;;20.60;80.20;;;;;;5004600;28;20465;-58
2023/12/29 01:31:23;;;;;;;1.30;1.10;;;20.60;80.30;;;;;;5000928;28;20226;-59
2023/12/29 01:33:50;;;;;;;2.05;1.10;;;20.60;80.30;;;;;;5009407;28;20206;-58
2023/12/29 01:36:19;;;;;;;1.30;0.93;;;20.60;80.30;;;;;;4997422;28;20200;-60
2023/12/29 01:38:48;;;;;;;1.60;0.95;;;20.60;80.10;;;;;;4998539;28;20226;-51
2023/12/29 01:41:15;;;;;;;2.08;0.85;;;20.60;80.30;;;;;;4994244;28;20199;-55
2023/12/29 01:44:30;;;;;;;1.73;0.77;;;20.60;80.60;;;;;;5007240;28;20708;-54
2023/12/29 01:47:01;;;;;;;2.20;1.40;;;20.60;80.40;;;;;;5000812;28;20207;-55
2023/12/29 01:49:28;;;;;;;1.17;1.05;;;20.50;80.30;;;;;;5005871;28;20199;-53
2023/12/29 01:52:01;;;;;;;1.30;0.93;;;20.50;80.30;;;;;;5001536;28;20214;-50
2023/12/29 01:54:31;;;;;;;1.93;1.00;;;20.50;80.30;;;;;;4989763;28;20265;-55
2023/12/29 01:57:01;;;;;;;1.35;0.85;;;20.50;80.30;;;;;;4994796;28;20453;-52
2023/12/29 01:59:28;;;;;;;1.58;0.77;;;20.50;80.50;;;;;;5004676;28;20215;-54
2023/12/29 02:01:57;;;;;;;1.10;0.90;;;20.50;80.50;;;;;;5000483;28;20203;-52
2023/12/29 02:04:27;;;;;;;2.40;1.05;;;20.50;80.60;;;;;;4991481;28;20320;-55
2023/12/29 02:06:54;;;;;;;1.20;0.90;;;20.40;80.50;;;;;;5003268;28;20191;-53
2023/12/29 02:09:20;;;;;;;1.60;1.10;;;20.40;80.40;;;;;;5000307;28;20207;-51
2023/12/29 02:11:50;;;;;;;1.40;0.98;;;20.40;80.50;;;;;;4996844;28;20235;-52
2023/12/29 02:14:17;;;;;;;1.10;0.80;;;20.40;80.60;;;;;;4999506;28;20203;-52
2023/12/29 02:16:51;;;;;;;1.40;1.15;;;20.40;80.40;;;;;;4998498;28;20687;-52
2023/12/29 02:19:35;;;;;;;1.20;0.77;;;20.40;80.40;;;;;;4998035;28;20614;-54
2023/12/29 02:22:02;;;;;;;1.17;0.95;;;20.40;80.60;;;;;;4997400;28;20421;-55
2023/12/29 02:24:32;;;;;;;1.52;0.98;;;20.40;80.70;;;;;;5003489;28;20206;-53
2023/12/29 02:27:12;;;;;;;2.15;0.98;;;20.40;80.60;;;;;;5003975;28;21450;-54
2023/12/29 02:29:41;;;;;;;1.15;0.85;;;20.40;80.70;;;;;;5000190;28;20653;-53
2023/12/29 02:32:12;;;;;;;1.50;0.90;;;20.30;80.20;;;;;;5003072;28;20195;-56
2023/12/29 02:34:41;;;;;;;1.20;0.75;;;20.40;80.70;;;;;;5001829;28;20196;-52
2023/12/29 02:37:09;;;;;;;1.45;1.00;;;20.40;80.60;;;;;;5004045;28;20211;-52
2023/12/29 02:39:36;;;;;;;1.88;0.98;;;20.40;80.60;;;;;;4998652;28;20202;-54
2023/12/29 02:42:04;;;;;;;1.00;0.80;;;20.40;80.60;;;;;;4995947;28;20208;-54
2023/12/29 02:44:34;;;;;;;1.63;0.80;;;20.40;80.60;;;;;;4998160;28;20658;-52
2023/12/29 02:47:03;;;;;;;1.35;0.80;;;20.30;80.70;;;;;;5001487;28;20602;-55
2023/12/29 02:49:30;;;;;;;1.33;0.82;;;20.30;80.60;;;;;;4999044;28;20200;-51
2023/12/29 02:51:57;;;;;;;1.25;0.90;;;20.30;80.60;;;;;;5000735;28;20665;-51
2023/12/29 02:54:24;;;;;;;1.40;1.08;;;20.30;80.80;;;;;;5003024;28;20815;-51
2023/12/29 02:56:50;;;;;;;1.17;0.90;;;20.30;80.70;;;;;;5003273;28;20634;-53
2023/12/29 02:59:18;;;;;;;0.90;0.70;;;20.30;80.70;;;;;;4999313;28;20210;-54
2023/12/29 03:01:46;;;;;;;1.80;1.00;;;20.30;80.70;;;;;;4999591;28;20196;-53
2023/12/29 03:04:14;;;;;;;1.50;1.00;;;20.30;80.60;;;;;;5000237;28;20306;-55
2023/12/29 03:06:45;;;;;;;1.20;0.85;;;20.30;80.80;;;;;;5001461;28;20207;-57
2023/12/29 03:09:11;;;;;;;1.45;1.20;;;20.30;80.90;;;;;;5004262;28;20768;-52
2023/12/29 03:11:37;;;;;;;1.80;0.93;;;20.30;80.90;;;;;;5000272;28;20518;-54
2023/12/29 03:14:04;;;;;;;1.10;0.80;;;20.20;80.60;;;;;;4996088;28;20218;-51
2023/12/29 03:16:34;;;;;;;1.00;0.80;;;20.20;80.70;;;;;;5000821;28;20195;-52
2023/12/29 03:19:03;;;;;;;2.00;1.08;;;20.30;80.80;;;;;;4999050;28;20785;-54
2023/12/29 03:21:29;;;;;;;1.20;0.80;;;20.20;80.70;;;;;;5001601;28;20210;-51
2023/12/29 03:23:56;;;;;;;1.15;0.75;;;20.30;80.80;;;;;;5003278;28;20203;-53
2023/12/29 03:26:23;;;;;;;1.23;0.80;;;20.30;80.90;;;;;;4998796;28;20210;-55
2023/12/29 03:28:49;;;;;;;1.20;0.80;;;20.20;80.70;;;;;;4996392;28;20374;-52
2023/12/29 03:31:18;;;;;;;1.20;0.90;;;20.30;80.80;;;;;;4996096;28;20191;-55
2023/12/29 03:33:49;;;;;;;0.98;0.73;;;20.20;80.70;;;;;;5005531;28;20350;-53
2023/12/29 03:36:17;;;;;;;1.50;0.93;;;20.20;80.70;;;;;;5003718;28;20219;-57
2023/12/29 03:38:46;;;;;;;1.73;1.00;;;20.20;80.80;;;;;;4997369;28;20774;-51
2023/12/29 03:41:13;;;;;;;3.00;0.85;;;20.20;80.70;;;;;;4996682;28;20195;-55
2023/12/29 03:43:41;;;;;;;2.45;1.23;;;20.20;80.80;;;;;;5000394;28;20558;-52
2023/12/29 03:46:18;;;;;;;1.20;0.75;;;20.20;80.90;;;;;;4998901;28;20207;-53
2023/12/29 03:48:49;;;;;;;2.00;0.77;;;20.30;81.00;;;;;;4999679;28;20223;-53
2023/12/29 03:51:17;;;;;;;1.00;0.90;;;20.20;80.80;;;;;;4996556;28;20199;-53
2023/12/29 03:53:44;;;;;;;1.92;0.90;;;20.20;81.00;;;;;;4999976;28;20199;-54
2023/12/29 03:56:17;;;;;;;1.42;1.33;;;20.20;80.90;;;;;;5002836;28;20777;-56
2023/12/29 03:58:44;;;;;;;1.20;1.00;;;20.20;81.00;;;;;;4995666;28;20884;-54
2023/12/29 04:01:11;;;;;;;1.23;0.80;;;20.20;81.00;;;;;;4997748;28;20282;-53
2023/12/29 04:03:41;;;;;;;1.33;0.88;;;20.20;81.00;;;;;;4999613;28;20204;-54
2023/12/29 04:06:09;;;;;;;1.30;0.85;;;20.20;80.80;;;;;;4997278;28;20191;-55
2023/12/29 04:08:37;;;;;;;1.50;1.30;;;20.20;80.90;;;;;;4992754;28;20227;-52
2023/12/29 04:11:04;;;;;;;1.00;0.70;;;20.20;80.80;;;;;;5000428;28;20648;-52
2023/12/29 04:13:32;;;;;;;1.58;1.00;;;20.10;80.80;;;;;;4994947;28;20202;-54
2023/12/29 04:16:00;;;;;;;2.13;1.00;;;20.10;80.70;;;;;;4995789;28;20335;-54
2023/12/29 04:18:28;;;;;;;1.30;0.80;;;20.10;81.50;;;;;;4998187;28;20222;-49
2023/12/29 04:20:55;;;;;;;1.20;0.90;;;20.10;80.90;;;;;;4998567;28;20227;-56
2023/12/29 04:23:25;;;;;;;1.27;0.80;;;20.10;81.00;;;;;;5000226;28;21229;-54
2023/12/29 04:25:52;;;;;;;1.30;0.85;;;20.10;80.90;;;;;;5003307;28;20430;-55
2023/12/29 04:28:20;;;;;;;2.03;0.80;;;20.10;81.00;;;;;;4999316;28;20215;-55
2023/12/29 04:30:47;;;;;;;0.90;0.70;;;20.10;81.00;;;;;;4996085;28;20199;-56
2023/12/29 04:33:13;;;;;;;1.33;1.23;;;20.10;80.80;;;;;;5001343;28;20293;-54
2023/12/29 04:35:40;;;;;;;1.45;1.02;;;20.10;80.90;;;;;;5008089;28;20657;-54
2023/12/29 04:38:07;;;;;;;1.70;0.85;;;20.10;81.00;;;;;;5002476;28;20202;-51
2023/12/29 04:40:39;;;;;;;2.08;1.00;;;20.10;81.00;;;;;;4997129;28;21069;-53
2023/12/29 04:43:06;;;;;;;1.00;0.77;;;20.10;81.10;;;;;;5001997;28;20200;-53
2023/12/29 04:45:33;;;;;;;2.13;0.77;;;20.10;80.80;;;;;;5004452;28;20214;-54
2023/12/29 04:47:59;;;;;;;1.27;0.80;;;20.10;80.90;;;;;;4996319;28;20223;-54
2023/12/29 04:50:28;;;;;;;1.73;1.00;;;20.00;80.90;;;;;;4989025;28;20203;-52
2023/12/29 04:52:55;;;;;;;1.00;0.70;;;20.00;81.60;;;;;;4992358;28;20195;-50
2023/12/29 04:55:21;;;;;;;1.00;0.70;;;20.00;80.90;;;;;;4992704;28;20227;-54
2023/12/29 04:57:49;;;;;;;1.10;0.80;;;20.00;80.80;;;;;;4990963;28;20202;-55
2023/12/29 05:00:17;;;;;;;0.90;0.70;;;20.00;81.00;;;;;;4992225;28;20199;-56
2023/12/29 05:02:43;;;;;;;1.45;0.80;;;20.00;81.60;;;;;;4992908;28;25266;-54
2023/12/29 05:05:10;;;;;;;1.60;0.93;;;20.00;80.90;;;;;;4994327;28;20199;-55
2023/12/29 05:07:38;;;;;;;1.05;0.80;;;20.00;80.80;;;;;;4989099;28;20195;-53
2023/12/29 05:10:11;;;;;;;1.55;1.00;;;20.00;80.90;;;;;;4993948;28;20233;-54
2023/12/29 05:12:37;;;;;;;1.10;0.90;;;20.00;80.90;;;;;;4988471;28;20204;-52
2023/12/29 05:15:07;;;;;;;1.05;0.75;;;20.00;81.60;;;;;;4987465;28;20203;-52
2023/12/29 05:17:34;;;;;;;1.20;0.98;;;20.00;80.90;;;;;;4990576;28;20232;-54
2023/12/29 05:20:01;;;;;;;1.20;1.08;;;20.00;80.90;;;;;;4989707;28;20204;-53
2023/12/29 05:22:27;;;;;;;1.00;0.80;;;20.00;80.90;;;;;;5003300;28;20547;-51
2023/12/29 05:24:57;;;;;;;1.65;1.00;;;20.00;81.00;;;;;;5002702;28;20222;-55
2023/12/29 05:27:24;;;;;;;1.73;0.90;;;20.00;80.90;;;;;;5009998;28;20202;-55
2023/12/29 05:29:52;;;;;;;2.17;0.90;;;20.00;81.00;;;;;;5000933;28;20233;-52
2023/12/29 05:32:20;;;;;;;1.20;1.00;;;20.00;81.10;;;;;;4997455;28;20207;-54
2023/12/29 05:34:46;;;;;;;1.10;0.80;;;19.90;80.90;;;;;;4995616;28;20507;-53
2023/12/29 05:37:13;;;;;;;1.20;0.90;;;19.90;80.70;;;;;;5005443;28;20685;-52
2023/12/29 05:39:44;;;;;;;1.10;0.90;;;19.90;80.70;;;;;;5001934;28;20208;-52
2023/12/29 05:42:14;;;;;;;1.05;0.80;;;19.90;81.00;;;;;;5004755;28;20196;-50
2023/12/29 05:44:43;;;;;;;1.15;0.95;;;19.90;80.90;;;;;;5001314;28;20674;-53
2023/12/29 05:47:10;;;;;;;1.15;0.70;;;19.90;81.00;;;;;;5006255;28;20653;-50
2023/12/29 05:49:39;;;;;;;1.20;1.10;;;19.90;81.00;;;;;;4995827;28;20219;-51
2023/12/29 05:52:06;;;;;;;1.00;0.80;;;19.90;81.20;;;;;;4993986;28;20540;-54
2023/12/29 05:54:33;;;;;;;2.05;0.85;;;19.90;81.00;;;;;;4993218;28;20195;-51
2023/12/29 05:57:00;;;;;;;0.98;0.73;;;19.90;81.00;;;;;;4996187;28;20278;-52
2023/12/29 05:59:27;;;;;;;1.20;0.80;;;19.90;80.90;;;;;;4991811;28;20210;-49
2023/12/29 06:01:54;;;;;;;1.50;1.00;;;19.90;81.00;;;;;;4992418;28;20202;-54
2023/12/29 06:04:20;;;;;;;1.20;0.90;;;19.90;81.20;;;;;;4995108;28;21652;-55
2023/12/29 06:06:49;;;;;;;1.10;0.75;;;19.90;81.20;;;;;;4999047;28;20801;-54
2023/12/29 06:09:17;;;;;;;1.63;1.07;;;19.90;81.10;;;;;;4994534;28;20684;-53
2023/12/29 06:11:44;;;;;;;1.10;0.70;;;19.90;81.10;;;;;;4995963;28;20466;-56
2023/12/29 06:14:11;;;;;;;1.55;0.80;;;19.90;81.10;;;;;;4991357;28;20458;-55
2023/12/29 06:16:37;;;;;;;1.10;1.00;;;19.90;81.10;;;;;;4992640;28;20915;-52
2023/12/29 06:19:06;;;;;;;1.00;0.80;;;19.90;81.10;;;;;;4992883;28;20206;-54
2023/12/29 06:21:34;;;;;;;1.00;0.70;;;19.90;81.10;;;;;;5000625;28;20677;-56
2023/12/29 06:24:02;;;;;;;1.92;0.80;;;19.90;81.40;;;;;;5001740;28;20203;-54
2023/12/29 06:26:30;;;;;;;1.00;0.90;;;19.90;81.20;;;;;;4998155;28;20199;-55
2023/12/29 06:28:56;;;;;;;0.90;0.70;;;19.90;81.30;;;;;;5006509;28;20227;-53
2023/12/29 06:31:24;;;;;;;1.00;0.70;;;19.90;81.20;;;;;;5002614;28;20202;-55
2023/12/29 06:33:51;;;;;;;1.00;0.68;;;19.80;81.00;;;;;;5001125;28;20548;-52
2023/12/29 06:36:18;;;;;;;1.20;0.80;;;19.90;81.10;;;;;;4993606;28;20772;-54
2023/12/29 06:38:48;;;;;;;1.20;0.80;;;19.80;81.00;;;;;;5006058;28;20203;-55
2023/12/29 06:41:16;;;;;;;1.10;0.80;;;19.80;81.00;;;;;;5003359;28;20822;-57
2023/12/29 06:43:43;;;;;;;1.10;0.77;;;19.80;81.00;;;;;;5001237;28;20203;-53
2023/12/29 06:46:09;;;;;;;1.25;0.80;;;19.80;81.00;;;;;;5000721;28;20208;-54
2023/12/29 06:48:39;;;;;;;1.38;0.80;;;19.80;81.10;;;;;;5001959;28;20196;-53
2023/12/29 06:51:09;;;;;;;1.20;0.80;;;19.80;81.00;;;;;;5000265;28;20195;-54
2023/12/29 06:53:38;;;;;;;1.63;0.90;;;19.90;81.40;;;;;;5002053;28;20206;-53
2023/12/29 06:56:05;;;;;;;0.90;0.70;;;19.80;80.90;;;;;;5002327;28;20301;-54
2023/12/29 06:58:33;;;;;;;1.00;0.77;;;19.80;81.00;;;;;;5008125;28;21829;-50
2023/12/29 07:01:06;;;;;;;1.65;0.70;;;19.80;81.00;;;;;;5006964;28;20229;-56
2023/12/29 07:03:33;;;;;;;1.17;0.77;;;19.80;81.00;;;;;;5004450;28;20886;-54
2023/12/29 07:06:04;;;;;;;1.15;0.82;;;19.80;81.00;;;;;;5004395;28;20196;-52
2023/12/29 07:08:35;;;;;;;1.00;0.70;;;19.80;81.00;;;;;;5007416;28;20204;-57
2023/12/29 07:11:04;;;;;;;0.90;0.70;;;19.80;80.90;;;;;;5002093;28;20200;-54
2023/12/29 07:13:32;;;;;;;1.13;0.80;;;19.80;81.00;;;;;;5003621;28;20279;-53
2023/12/29 07:16:01;;;;;;;1.48;0.80;;;19.80;81.00;;;;;;5001527;28;20863;-56
2023/12/29 07:18:28;;;;;;;1.00;0.75;;;19.80;80.90;;;;;;4998433;28;20199;-55
2023/12/29 07:20:57;;;;;;;1.30;0.80;;;19.80;81.10;;;;;;4997866;28;20203;-52
2023/12/29 07:23:24;;;;;;;1.27;0.80;;;19.70;80.80;;;;;;4999621;28;20691;-55
2023/12/29 07:25:53;;;;;;;1.25;0.90;;;19.70;80.70;;;;;;5003748;28;20195;-54
2023/12/29 07:28:26;;;;;;;2.00;0.95;;;19.70;80.80;;;;;;4998137;28;20203;-53
2023/12/29 07:30:55;;;;;;;1.65;0.85;;;19.80;81.10;;;;;;5002589;28;20864;-56
2023/12/29 07:33:25;;;;;;;1.00;0.70;;;19.70;80.80;;;;;;5003060;28;20542;-54
2023/12/29 07:35:53;;;;;;;1.00;0.80;;;19.70;80.90;;;;;;5005578;28;20458;-53
2023/12/29 07:38:22;;;;;;;1.17;0.80;;;19.70;80.90;;;;;;5002938;28;20198;-55
2023/12/29 07:40:51;;;;;;;1.52;1.00;;;19.70;81.20;;;;;;5001073;28;20536;-55
2023/12/29 07:43:19;;;;;;;1.10;0.80;;;19.70;81.20;;;;;;5000757;28;20195;-55
2023/12/29 07:45:51;;;;;;;1.13;0.80;;;19.70;81.40;;;;;;4994345;28;20218;-56
2023/12/29 07:48:19;;;;;;;1.17;0.70;;;19.80;81.60;;;;;;4998725;28;20199;-52
2023/12/29 07:50:46;;;;;;;1.00;0.70;;;19.80;81.60;;;;;;5002981;28;20219;-54
2023/12/29 07:53:19;;;;;;;1.08;0.90;;;19.80;81.60;;;;;;5001018;28;20191;-55
2023/12/29 07:55:48;;;;;;;1.10;0.85;;;19.80;81.70;;;;;;4999438;28;20687;-54
2023/12/29 07:58:17;;;;;;;1.17;0.82;;;19.80;81.70;;;;;;5004537;28;20297;-54
2023/12/29 08:00:44;;;;;;;1.13;0.80;;;19.80;81.70;;;;;;5004998;28;20201;-54
2023/12/29 08:03:11;;;;;;;1.15;0.93;;;19.90;81.90;;;;;;5009313;28;20192;-51
2023/12/29 08:05:39;;;;;;;1.00;0.70;;;19.90;81.80;;;;;;5009709;28;20199;-53
2023/12/29 08:08:06;;;;;;;1.25;0.70;;;19.90;81.70;;;;;;5009746;28;20199;-51
2023/12/29 08:10:33;;;;;;;1.00;0.80;;;19.90;81.70;;;;;;5008358;28;20227;-52
2023/12/29 08:13:04;;;;;;;0.90;0.80;;;19.90;81.90;;;;;;5005241;28;20611;-55
2023/12/29 08:15:31;;;;;;;1.20;0.80;;;20.00;81.80;;;;;;5008225;28;20728;-51
2023/12/29 08:18:02;;;;;;;1.85;0.90;;;20.00;81.80;;;;;;5005515;28;23918;-49
2023/12/29 08:20:33;;;;;;;0.90;0.75;;;20.00;81.70;;;;;;5001799;28;20572;-56
2023/12/29 08:23:03;;;;;;;2.47;0.80;;;20.00;81.80;;;;;;5005415;28;20675;-51
2023/12/29 08:25:33;;;;;;;1.45;0.70;;;20.00;82.60;;;;;;5000088;28;21096;-55
2023/12/29 08:28:00;;;;;;;1.00;0.80;;;20.00;81.50;;;;;;5005089;28;20196;-52
2023/12/29 08:30:27;;;;;;;0.93;0.70;;;20.10;81.70;;;;;;4999447;28;20227;-52
2023/12/29 08:33:00;;;;;;;1.00;0.70;;;20.10;81.80;;;;;;4996318;28;20554;-55
2023/12/29 08:35:27;;;;;;;1.48;0.85;;;20.10;81.80;;;;;;5005776;28;22543;-54
2023/12/29 08:37:56;;;;;;;1.25;1.00;;;20.10;81.70;;;;;;5003989;28;20273;-56
2023/12/29 08:40:24;;;;;;;1.17;0.70;;;20.10;81.80;;;;;;4998860;28;20718;-55
2023/12/29 08:42:51;;;;;;;1.20;0.80;;;20.10;81.70;;;;;;5003572;28;20226;-55
2023/12/29 08:45:18;;;;;;;1.20;0.70;;;20.20;81.70;;;;;;5001007;28;20199;-53
2023/12/29 08:47:46;;;;;;;1.05;0.70;;;20.20;81.90;;;;;;5003598;28;20215;-55
2023/12/29 08:50:15;;;;;;;1.42;0.80;;;20.20;82.50;;;;;;4998338;28;20216;-51
2023/12/29 08:52:41;;;;;;;1.00;0.70;;;20.20;81.60;;;;;;4995542;28;20506;-52
2023/12/29 08:55:09;;;;;;;1.50;0.70;;;20.20;81.60;;;;;;5002796;28;20727;-52
2023/12/29 08:57:40;;;;;;;1.00;0.60;;;20.30;82.00;;;;;;5006738;28;20643;-54
2023/12/29 09:00:09;;;;;;;1.92;0.70;;;20.30;81.90;;;;;;5000793;28;20515;-53
2023/12/29 09:02:36;;;;;;;1.00;0.70;;;20.30;81.70;;;;;;5005435;28;20203;-54
2023/12/29 09:05:07;;;;;;;1.35;0.90;;;20.30;81.80;;;;;;5004983;28;20194;-53
2023/12/29 09:07:36;;;;;;;1.50;0.65;;;20.30;81.60;;;;;;4996548;28;20210;-52
2023/12/29 09:10:03;;;;;;;1.20;1.00;;;20.30;81.50;;;;;;5005843;28;20837;-52
2023/12/29 09:12:33;;;;;;;1.52;0.90;;;20.30;81.40;;;;;;5000976;28;20760;-50
2023/12/29 09:15:01;;;;;;;1.00;0.70;;;20.30;81.40;;;;;;4999741;28;20210;-54
2023/12/29 09:17:27;;;;;;;2.03;0.93;;;20.40;81.40;;;;;;5004554;28;20198;-53
2023/12/29 09:19:54;;;;;;;1.30;0.80;;;20.40;81.40;;;;;;5003342;28;20707;-50
2023/12/29 09:22:21;;;;;;;1.00;0.70;;;20.40;81.30;;;;;;4997578;28;20198;-54
2023/12/29 09:24:54;;;;;;;0.80;0.60;;;20.40;81.30;;;;;;5005766;28;20199;-54
2023/12/29 09:27:20;;;;;;;1.50;0.90;;;20.40;81.30;;;;;;5006178;28;20422;-53
2023/12/29 09:29:47;;;;;;;1.38;0.80;;;20.40;81.20;;;;;;5003244;28;21429;-50
2023/12/29 09:32:15;;;;;;;2.47;0.80;;;20.40;81.10;;;;;;5006756;28;20211;-54
2023/12/29 09:34:45;;;;;;;1.13;0.80;;;20.40;81.00;;;;;;5003270;28;20199;-51
2023/12/29 09:37:14;;;;;;;2.40;0.90;;;20.50;81.90;;;;;;5003653;28;20669;-53
2023/12/29 09:39:41;;;;;;;1.05;0.80;;;20.40;80.90;;;;;;5003873;28;20276;-54
2023/12/29 09:42:18;;;;;;;2.10;0.90;;;20.40;80.80;;;;;;4999204;28;20298;-54
2023/12/29 09:44:46;;;;;;;1.30;0.90;;;20.50;80.90;;;;;;5001096;28;20759;-52
2023/12/29 09:47:23;;;;;;;1.70;1.00;;;20.50;80.80;;;;;;5004990;28;20808;-54
2023/12/29 09:49:58;;;;;;;1.10;0.70;;;20.50;81.20;;;;;;5001545;28;20219;-53
2023/12/29 09:52:26;;;;;;;1.63;0.95;;;20.50;81.30;;;;;;5000143;28;20200;-50
2023/12/29 09:54:56;;;;;;;2.38;0.70;;;20.50;81.20;;;;;;4997957;28;20199;-52
2023/12/29 09:57:25;;;;;;;0.90;0.70;;;20.50;81.10;;;;;;5004164;28;20659;-52
2023/12/29 09:59:56;;;;;;;1.15;0.82;;;20.50;81.20;;;;;;4994488;28;21087;-51
2023/12/29 10:02:24;;;;;;;1.20;0.80;;;20.50;81.00;;;;;;5001477;28;20777;-51
2023/12/29 10:04:51;;;;;;;1.30;0.80;;;20.50;81.00;;;;;;5004016;28;21028;-54
2023/12/29 10:07:24;;;;;;;1.10;0.90;;;20.50;81.20;;;;;;5004588;28;20218;-54
2023/12/29 10:09:55;;;;;;;6.55;0.80;;;20.50;81.30;;;;;;5000552;28;20785;-54
2023/12/29 10:12:23;;;;;;;2.15;0.73;;;20.50;81.50;;;;;;5002413;28;20207;-54
2023/12/29 10:15:01;;;;;;;1.65;0.73;;;20.60;81.50;;;;;;4995512;28;20203;-54
2023/12/29 10:17:39;;;;;;;4.10;0.98;;;20.60;81.50;;;;;;5001491;28;20651;-54
2023/12/29 10:20:13;;;;;;;1.60;0.90;;;20.60;81.50;;;;;;5002662;28;20318;-55
2023/12/29 10:22:54;;;;;;;1.07;0.60;;;20.60;81.50;;;;;;5003527;28;20450;-59
2023/12/29 10:25:25;;;;;;;1.80;0.80;;;20.60;81.90;;;;;;5004380;28;20459;-55
2023/12/29 10:27:52;;;;;;;1.48;0.95;;;20.60;81.60;;;;;;5008678;28;20203;-59
2023/12/29 10:30:19;;;;;;;3.03;0.90;;;20.60;81.50;;;;;;5002476;28;20363;-62
2023/12/29 10:32:53;;;;;;;1.35;0.90;;;20.60;82.20;;;;;;5009394;28;20731;-62
2023/12/29 10:35:22;;;;;;;2.85;0.90;;;20.60;82.10;;;;;;5003998;28;20200;-64
2023/12/29 10:37:49;;;;;;;3.55;0.70;;;20.60;82.40;;;;;;5005534;28;20522;-61
2023/12/29 10:40:20;;;;;;;1.92;1.40;;;20.70;83.70;;;;;;5005707;28;21542;-64
2023/12/29 10:42:55;;;;;;;1.63;0.80;;;20.70;83.10;;;;;;5005363;28;20199;-59
2023/12/29 10:45:24;;;;;;;1.73;0.70;;;20.70;83.30;;;;;;5005673;28;20203;-61
2023/12/29 10:47:55;;;;;;;1.20;0.70;;;20.70;83.40;;;;;;5005509;28;20278;-63
2023/12/29 10:50:23;;;;;;;1.75;0.70;;;20.70;83.50;;;;;;5006252;28;20580;-58
2023/12/29 10:52:50;;;;;;;1.97;0.80;;;20.80;83.50;;;;;;5008204;28;20276;-62
2023/12/29 10:55:19;;;;;;;1.20;0.80;;;20.80;83.70;;;;;;5002724;28;20553;-61
2023/12/29 10:57:46;;;;;;;1.65;0.77;;;20.80;83.70;;;;;;5010120;28;20226;-60
2023/12/29 11:00:14;;;;;;;0.97;0.70;;;20.80;83.50;;;;;;5002866;28;20722;-61
2023/12/29 11:02:54;;;;;;;1.53;0.80;;;20.80;83.40;;;;;;5007894;28;20458;-61
2023/12/29 11:05:26;;;;;;;2.85;1.00;;;20.90;83.50;;;;;;5004392;28;20459;-61
2023/12/29 11:07:54;;;;;;;1.10;0.70;;;20.90;83.80;;;;;;5005156;28;20214;-60
2023/12/29 11:10:35;;;;;;;1.67;0.80;;;20.90;83.90;;;;;;5004431;28;20866;-61
2023/12/29 11:13:03;;;;;;;1.95;0.93;;;20.90;84.00;;;;;;5007016;28;20629;-60
2023/12/29 11:15:33;;;;;;;1.50;0.80;;;20.90;84.00;;;;;;4999718;28;20551;-63
2023/12/29 11:18:00;;;;;;;1.20;0.70;;;20.90;84.00;;;;;;5006037;28;20855;-61
2023/12/29 11:20:30;;;;;;;1.10;0.80;;;21.00;84.20;;;;;;5006491;28;20474;-62
2023/12/29 11:22:57;;;;;;;0.93;0.70;;;21.00;84.30;;;;;;4998296;28;21021;-63
2023/12/29 11:25:23;;;;;;;1.03;0.67;;;21.00;84.20;;;;;;5004914;28;20285;-61
2023/12/29 11:27:54;;;;;;;1.50;0.90;;;21.10;84.20;;;;;;5005270;28;20465;-63
2023/12/29 11:30:21;;;;;;;1.10;0.80;;;21.10;84.00;;;;;;5000968;28;20482;-61
2023/12/29 11:32:53;;;;;;;1.40;0.77;;;21.20;83.90;;;;;;5002515;28;20462;-65
2023/12/29 11:35:33;;;;;;;1.10;0.70;;;21.20;83.70;;;;;;5003259;28;20461;-58
2023/12/29 11:38:28;;;;;;;1.60;0.70;;;21.30;83.70;;;;;;5004942;28;20788;-57
2023/12/29 11:41:03;;;;;;;1.77;1.00;;;21.30;83.60;;;;;;5002570;28;20454;-62
2023/12/29 11:43:30;;;;;;;1.20;0.83;;;21.30;83.60;;;;;;4996671;28;20461;-62
2023/12/29 11:45:55;;;;;;;1.83;0.80;;;21.30;83.40;;;;;;5002501;28;20782;-62
2023/12/29 11:48:55;;;;;;;0.90;0.60;;;21.40;83.50;;;;;;4998595;28;20473;-60
2023/12/29 11:51:31;;;;;;;1.27;0.70;;;21.40;83.50;;;;;;5000971;28;20219;-49
2023/12/29 11:54:01;;;;;;;1.00;0.70;;;21.50;83.40;;;;;;5001636;28;20545;-50
2023/12/29 11:56:38;;;;;;;1.73;0.70;;;21.50;83.40;;;;;;5000272;28;20461;-55
2023/12/29 11:59:19;;;;;;;0.90;0.60;;;21.50;83.20;;;;;;5001048;28;20961;-51
2023/12/29 12:01:51;;;;;;;1.30;0.80;;;21.50;83.10;;;;;;5004077;28;20472;-57
2023/12/29 12:04:41;;;;;;;1.73;1.20;;;21.60;83.10;;;;;;5001513;28;20461;-50
2023/12/29 12:07:09;;;;;;;1.83;0.80;;;21.60;82.90;;;;;;5004974;28;21060;-54
2023/12/29 12:09:39;;;;;;;0.90;0.70;;;21.70;83.00;;;;;;5000338;28;20457;-55
2023/12/29 12:12:06;;;;;;;1.17;0.80;;;21.60;82.90;;;;;;5002487;28;20505;-54
2023/12/29 12:14:52;;;;;;;1.00;0.73;;;21.60;82.70;;;;;;4999716;28;20462;-54
2023/12/29 12:17:29;;;;;;;1.10;0.60;;;21.70;82.70;;;;;;5004339;28;21254;-62
2023/12/29 12:20:08;;;;;;;1.43;0.80;;;21.60;82.60;;;;;;4989196;28;20492;-61
2023/12/29 12:22:36;;;;;;;1.13;0.70;;;21.70;82.70;;;;;;5000386;28;20960;-62
2023/12/29 12:25:07;;;;;;;0.90;0.70;;;21.70;82.60;;;;;;5000390;28;20488;-62
2023/12/29 12:27:38;;;;;;;0.90;0.60;;;21.70;82.70;;;;;;5002366;28;20468;-60
2023/12/29 12:30:09;;;;;;;3.00;0.70;;;21.70;82.30;;;;;;5004788;28;21576;-60
2023/12/29 12:32:38;;;;;;;1.07;0.80;;;21.70;82.50;;;;;;5006847;28;20463;-59
2023/12/29 12:35:13;;;;;;;1.37;0.70;;;21.70;82.50;;;;;;5003912;28;20526;-60
2023/12/29 12:37:40;;;;;;;1.10;0.77;;;21.80;82.50;;;;;;5001310;28;20462;-61
2023/12/29 12:40:26;;;;;;;1.00;0.60;;;21.70;82.30;;;;;;5006611;28;20464;-52
2023/12/29 12:42:54;;;;;;;0.90;0.70;;;21.80;82.40;;;;;;5003618;28;20607;-61
2023/12/29 12:45:22;;;;;;;1.00;0.80;;;21.80;82.30;;;;;;5009604;28;20478;-58
2023/12/29 12:47:53;;;;;;;1.20;0.80;;;21.80;82.40;;;;;;5005696;28;20465;-60
2023/12/29 12:50:20;;;;;;;1.00;0.60;;;21.80;82.30;;;;;;5006206;28;20462;-60
2023/12/29 12:52:47;;;;;;;1.43;0.77;;;21.80;82.10;;;;;;5003491;28;20469;-61
2023/12/29 12:55:18;;;;;;;1.70;0.70;;;21.80;82.20;;;;;;5006025;28;20457;-63
2023/12/29 12:57:45;;;;;;;1.63;0.73;;;21.80;82.20;;;;;;5005756;28;20463;-63